createdAt,value
2018-01-21T00:04:40.017Z,98809
2018-01-21T00:14:41.613Z,98828
2018-01-21T00:24:43.196Z,98851
2018-01-21T00:34:44.756Z,98884
2018-01-21T00:44:46.992Z,98898
2018-01-21T00:54:48.532Z,98916
2018-01-21T01:04:50.149Z,98966
2018-01-21T01:14:51.799Z,98989
2018-01-21T01:24:53.450Z,99023
2018-01-21T01:34:54.994Z,99020
2018-01-21T01:44:56.724Z,99036
2018-01-21T01:54:58.307Z,99090
2018-01-21T02:04:59.900Z,99134
2018-01-21T02:15:01.419Z,99136
2018-01-21T02:25:02.980Z,99150
2018-01-21T02:35:04.561Z,99156
2018-01-21T02:45:06.072Z,99178
2018-01-21T02:55:08.420Z,99192
2018-01-21T03:05:10.050Z,99198
2018-01-21T03:15:11.584Z,99236
2018-01-21T03:25:13.828Z,99273
2018-01-21T03:35:15.393Z,99304
2018-01-21T03:45:16.935Z,99313
2018-01-21T03:55:18.588Z,99346
2018-01-21T04:05:20.256Z,99368
2018-01-21T04:15:21.938Z,99391
2018-01-21T04:25:23.564Z,99413
2018-01-21T04:35:25.271Z,99433
2018-01-21T04:45:26.833Z,99445
2018-01-21T04:55:28.364Z,99467
2018-01-21T05:05:29.896Z,99488
2018-01-21T05:15:31.490Z,99510
2018-01-21T05:25:33.077Z,99521
2018-01-21T05:35:34.593Z,99544
2018-01-21T05:45:36.153Z,99571
2018-01-21T05:55:37.698Z,99591
2018-01-21T06:05:39.200Z,99611
2018-01-21T06:15:40.736Z,99640
2018-01-21T06:25:42.275Z,99675
2018-01-21T06:35:43.833Z,99686
2018-01-21T06:45:45.434Z,99711
2018-01-21T06:55:46.972Z,99739
2018-01-21T07:05:48.491Z,99746
2018-01-21T07:15:49.995Z,99762
2018-01-21T07:25:51.558Z,99798
2018-01-21T07:35:53.111Z,99840
2018-01-21T07:45:55.411Z,99866
2018-01-21T07:55:57.047Z,99899
2018-01-21T08:05:58.680Z,99934
2018-01-21T08:16:00.184Z,99961
2018-01-21T08:26:01.678Z,99968
2018-01-21T08:36:09.454Z,99990
2018-01-21T08:46:11.022Z,100000
2018-01-21T08:56:12.587Z,100044
2018-01-21T09:06:15.059Z,100059
2018-01-21T09:16:16.559Z,100070
2018-01-21T09:26:18.198Z,100088
2018-01-21T09:36:20.592Z,100097
2018-01-21T09:46:22.192Z,100111
2018-01-21T09:56:23.894Z,100119
2018-01-21T10:06:25.540Z,100130
2018-01-21T10:16:27.158Z,100149
2018-01-21T10:26:28.824Z,100163
2018-01-21T10:36:31.204Z,100169
2018-01-21T10:46:32.821Z,100191
2018-01-21T10:56:34.455Z,100187
2018-01-21T11:06:36.897Z,100198
2018-01-21T11:16:38.492Z,100223
2018-01-21T11:26:40.048Z,100239
2018-01-21T11:36:41.693Z,100259
2018-01-21T11:46:43.342Z,100252
2018-01-21T11:56:44.962Z,100265
2018-01-21T12:06:46.673Z,100258
2018-01-21T12:16:48.457Z,100257
2018-01-21T12:26:50.247Z,100266
2018-01-21T12:36:51.908Z,100249
2018-01-21T12:46:53.563Z,100269
2018-01-21T12:56:55.247Z,100260
2018-01-21T13:06:56.858Z,100259
2018-01-21T13:16:58.446Z,100273
2018-01-21T13:27:00.089Z,100289
2018-01-21T13:37:01.726Z,100303
2018-01-21T13:47:03.323Z,100305
2018-01-21T13:57:05.704Z,100320
2018-01-21T14:07:07.314Z,100340
2018-01-21T14:17:09.136Z,100321
2018-01-21T14:27:10.893Z,100353
2018-01-21T14:37:12.446Z,100356
2018-01-21T14:47:14.814Z,100358
2018-01-21T14:57:16.456Z,100364
2018-01-21T15:07:18.053Z,100373
2018-01-21T15:17:19.677Z,100369
2018-01-21T15:27:22.032Z,100385
2018-01-21T15:37:23.588Z,100380
2018-01-21T15:47:25.975Z,100382
2018-01-21T15:57:27.599Z,100388
2018-01-21T16:07:29.279Z,100378
2018-01-21T16:17:30.884Z,100373
2018-01-21T16:27:32.619Z,100382
2018-01-21T16:37:53.261Z,100377
2018-01-21T16:47:55.629Z,100382
2018-01-21T16:57:57.299Z,100388
2018-01-21T17:07:58.966Z,100383
2018-01-21T17:18:00.608Z,100374
2018-01-21T17:28:02.209Z,100366
2018-01-21T17:38:04.635Z,100352
2018-01-21T17:48:06.272Z,100347
2018-01-21T17:58:07.858Z,100347
2018-01-21T18:08:09.448Z,100349
2018-01-21T18:18:11.112Z,100362
2018-01-21T18:28:12.777Z,100359
2018-01-21T18:38:15.197Z,100366
2018-01-21T18:48:16.923Z,100339
2018-01-21T18:58:18.515Z,100336
2018-01-21T19:08:20.087Z,100310
2018-01-21T19:18:21.708Z,100295
2018-01-21T19:28:23.429Z,100290
2018-01-21T19:38:25.042Z,100291
2018-01-21T19:48:26.696Z,100275
2018-01-21T19:58:28.336Z,100269
2018-01-21T20:08:30.056Z,100260
2018-01-21T20:18:31.673Z,100240
2018-01-21T20:28:34.017Z,100225
2018-01-21T20:38:35.680Z,100217
2018-01-21T20:48:37.459Z,100189
2018-01-21T20:58:39.056Z,100187
2018-01-21T21:08:40.757Z,100178
2018-01-21T21:18:42.561Z,100144
2018-01-21T21:28:44.264Z,100134
2018-01-21T21:38:45.935Z,100119
2018-01-21T21:48:47.555Z,100106
2018-01-21T21:58:49.292Z,100090
2018-01-21T22:08:51.032Z,100077
2018-01-21T22:18:52.949Z,100077
2018-01-21T22:28:54.611Z,100051
2018-01-21T22:38:56.386Z,100047
2018-01-21T22:48:58.081Z,100021
2018-01-21T22:58:59.893Z,99992
2018-01-21T23:09:01.540Z,99973
2018-01-21T23:19:04.566Z,99980
2018-01-21T23:29:06.287Z,99970
2018-01-21T23:39:07.851Z,99940
2018-01-21T23:49:09.472Z,99921
2018-01-21T23:59:11.162Z,99926
